createdAt,value
2018-08-06T00:00:03.365Z,1016.14
2018-08-06T00:01:03.278Z,1016.11
2018-08-06T00:02:03.228Z,1016.13
2018-08-06T00:03:03.154Z,1016.12
2018-08-06T00:04:03.068Z,1016.10
2018-08-06T00:05:02.963Z,1016.07
2018-08-06T00:06:02.930Z,1016.07
2018-08-06T00:07:02.814Z,1016.01
2018-08-06T00:08:02.757Z,1016.00
2018-08-06T00:09:02.653Z,1016.01
2018-08-06T00:10:02.592Z,1015.98
2018-08-06T00:11:02.534Z,1016.01
2018-08-06T00:12:02.435Z,1015.96
2018-08-06T00:13:02.344Z,1015.95
2018-08-06T00:14:02.306Z,1015.97
2018-08-06T00:15:02.190Z,1015.96
2018-08-06T00:16:02.132Z,1015.95
2018-08-06T00:17:02.035Z,1015.97
2018-08-06T00:18:01.964Z,1015.94
2018-08-06T00:19:01.909Z,1015.91
2018-08-06T00:20:01.839Z,1015.96
2018-08-06T00:21:01.737Z,1015.89
2018-08-06T00:22:01.659Z,1015.94
2018-08-06T00:23:01.581Z,1015.89
2018-08-06T00:24:01.520Z,1015.88
2018-08-06T00:25:01.439Z,1015.84
2018-08-06T00:26:01.370Z,1015.80
2018-08-06T00:27:01.270Z,1015.84
2018-08-06T00:28:01.192Z,1015.83
2018-08-06T00:29:01.128Z,1015.83
2018-08-06T00:30:01.062Z,1015.81
2018-08-06T00:31:00.956Z,1015.82
2018-08-06T00:32:00.914Z,1015.76
2018-08-06T00:33:00.801Z,1015.78
2018-08-06T00:34:00.741Z,1015.77
2018-08-06T00:35:00.657Z,1015.75
2018-08-06T00:36:00.577Z,1015.76
2018-08-06T00:37:00.485Z,1015.74
2018-08-06T00:38:00.413Z,1015.77
2018-08-06T00:39:00.324Z,1015.76
2018-08-06T00:40:00.281Z,1015.76
2018-08-06T00:41:00.189Z,1015.70
2018-08-06T00:42:00.104Z,1015.70
2018-08-06T00:43:00.037Z,1015.69
2018-08-06T00:45:42.272Z,1015.64
2018-08-06T00:48:24.243Z,1015.64
2018-08-06T00:49:24.198Z,1015.65
2018-08-06T00:50:24.106Z,1015.62
2018-08-06T00:51:24.013Z,1015.65
2018-08-06T00:52:23.959Z,1015.63
2018-08-06T00:55:06.255Z,1015.60
2018-08-06T00:56:06.179Z,1015.57
2018-08-06T00:57:06.114Z,1015.61
2018-08-06T00:58:06.024Z,1015.57
2018-08-06T00:59:05.975Z,1015.59
2018-08-06T01:00:05.866Z,1015.54
2018-08-06T01:01:05.807Z,1015.56
2018-08-06T01:02:05.717Z,1015.56
2018-08-06T01:03:05.629Z,1015.50
2018-08-06T01:04:05.576Z,1015.49
2018-08-06T01:05:05.476Z,1015.52
2018-08-06T01:06:05.422Z,1015.52
2018-08-06T01:07:05.318Z,1015.50
2018-08-06T01:09:47.264Z,1015.45
2018-08-06T01:12:29.281Z,1015.44
2018-08-06T01:13:29.218Z,1015.43
2018-08-06T01:14:29.105Z,1015.42
2018-08-06T01:15:29.046Z,1015.41
2018-08-06T01:16:28.988Z,1015.41
2018-08-06T01:19:11.262Z,1015.38
2018-08-06T01:20:11.186Z,1015.38
2018-08-06T01:21:11.134Z,1015.37
2018-08-06T01:22:11.036Z,1015.39
2018-08-06T01:23:10.952Z,1015.39
2018-08-06T01:24:10.875Z,1015.37
2018-08-06T01:25:10.800Z,1015.36
2018-08-06T01:26:11.752Z,1015.38
2018-08-06T01:27:10.629Z,1015.37
2018-08-06T01:28:10.573Z,1015.34
2018-08-06T01:29:10.479Z,1015.34
2018-08-06T01:31:52.783Z,1015.32
2018-08-06T01:32:52.687Z,1015.32
2018-08-06T01:33:52.609Z,1015.28
2018-08-06T01:34:52.534Z,1015.26
2018-08-06T01:35:52.453Z,1015.29
2018-08-06T01:36:52.407Z,1015.28
2018-08-06T01:37:52.311Z,1015.27
2018-08-06T01:38:52.219Z,1015.29
2018-08-06T01:39:52.139Z,1015.24
2018-08-06T01:40:52.075Z,1015.22
2018-08-06T01:41:52.003Z,1015.21
2018-08-06T01:42:51.988Z,1015.21
2018-08-06T01:43:51.824Z,1015.17
2018-08-06T01:46:33.762Z,1015.19
2018-08-06T01:47:34.713Z,1015.19
2018-08-06T01:48:33.650Z,1015.18
2018-08-06T01:49:33.553Z,1015.18
2018-08-06T01:50:33.457Z,1015.17
2018-08-06T01:51:33.407Z,1015.22
2018-08-06T01:52:33.325Z,1015.19
2018-08-06T01:53:33.242Z,1015.20
2018-08-06T01:54:33.170Z,1015.14
2018-08-06T01:55:33.064Z,1015.16
2018-08-06T01:56:32.991Z,1015.13
2018-08-06T01:57:32.922Z,1015.10
2018-08-06T01:58:32.842Z,1015.09
2018-08-06T02:01:14.763Z,1015.08
2018-08-06T02:02:14.725Z,1015.15
2018-08-06T02:03:14.630Z,1015.12
2018-08-06T02:04:14.558Z,1015.09
2018-08-06T02:05:14.455Z,1015.12
2018-08-06T02:06:14.386Z,1015.08
2018-08-06T02:07:14.294Z,1015.11
2018-08-06T02:08:14.284Z,1015.08
2018-08-06T02:09:14.147Z,1015.08
2018-08-06T02:10:14.079Z,1015.07
2018-08-06T02:11:13.982Z,1015.07
2018-08-06T02:12:13.917Z,1015.05
2018-08-06T02:13:13.870Z,1015.03
2018-08-06T02:14:13.772Z,1015.00
2018-08-06T02:15:13.685Z,1015.00
2018-08-06T02:16:13.603Z,1015.00
2018-08-06T02:17:13.513Z,1014.96
2018-08-06T02:18:13.458Z,1014.97
2018-08-06T02:19:13.374Z,1014.99
2018-08-06T02:20:13.297Z,1014.95
2018-08-06T02:21:13.209Z,1014.93
2018-08-06T02:22:13.140Z,1014.94
2018-08-06T02:23:13.054Z,1014.92
2018-08-06T02:24:14.040Z,1014.93
2018-08-06T02:25:12.895Z,1014.97
2018-08-06T02:26:12.828Z,1014.95
2018-08-06T02:27:12.738Z,1014.94
2018-08-06T02:29:54.813Z,1014.97
2018-08-06T02:30:54.717Z,1014.94
2018-08-06T02:31:54.642Z,1014.96
2018-08-06T02:32:54.544Z,1014.92
2018-08-06T02:33:54.489Z,1014.92
2018-08-06T02:34:54.390Z,1014.91
2018-08-06T02:35:54.334Z,1014.90
2018-08-06T02:36:54.253Z,1014.95
2018-08-06T02:37:54.146Z,1014.92
2018-08-06T02:38:54.100Z,1014.90
2018-08-06T02:39:53.995Z,1014.89
2018-08-06T02:40:54.935Z,1014.87
2018-08-06T02:41:53.870Z,1014.88
2018-08-06T02:42:53.775Z,1014.86
2018-08-06T02:43:53.690Z,1014.87
2018-08-06T02:44:53.635Z,1014.88
2018-08-06T02:45:53.547Z,1014.85
2018-08-06T02:46:53.465Z,1014.87
2018-08-06T02:47:53.368Z,1014.84
2018-08-06T02:48:53.300Z,1014.84
2018-08-06T02:49:53.223Z,1014.78
2018-08-06T02:50:54.174Z,1014.80
2018-08-06T02:51:53.050Z,1014.73
2018-08-06T02:52:52.983Z,1014.75
2018-08-06T02:53:52.971Z,1014.76
2018-08-06T02:54:52.836Z,1014.75
2018-08-06T02:55:52.736Z,1014.73
2018-08-06T02:56:52.739Z,1014.74
2018-08-06T02:57:52.581Z,1014.72
2018-08-06T02:58:52.515Z,1014.72
2018-08-06T02:59:52.424Z,1014.72
2018-08-06T03:00:52.363Z,1014.71
2018-08-06T03:01:52.297Z,1014.67
2018-08-06T03:02:52.203Z,1014.68
2018-08-06T03:03:52.109Z,1014.68
2018-08-06T03:04:52.043Z,1014.68
2018-08-06T03:05:51.959Z,1014.70
2018-08-06T03:06:51.923Z,1014.67
2018-08-06T03:07:51.792Z,1014.65
2018-08-06T03:08:51.728Z,1014.64
2018-08-06T03:09:51.663Z,1014.65
2018-08-06T03:10:51.572Z,1014.65
2018-08-06T03:11:51.958Z,1014.66
2018-08-06T03:12:51.406Z,1014.62
2018-08-06T03:13:51.326Z,1014.63
2018-08-06T03:14:51.269Z,1014.62
2018-08-06T03:15:51.169Z,1014.55
2018-08-06T03:16:51.146Z,1014.58
2018-08-06T03:17:51.051Z,1014.54
2018-08-06T03:18:50.945Z,1014.56
2018-08-06T03:19:50.854Z,1014.54
2018-08-06T03:20:50.785Z,1014.52
2018-08-06T03:21:50.731Z,1014.49
2018-08-06T03:22:51.647Z,1014.55
2018-08-06T03:23:50.555Z,1014.57
2018-08-06T03:24:50.482Z,1014.58
2018-08-06T03:25:50.393Z,1014.55
2018-08-06T03:28:32.342Z,1014.50
2018-08-06T03:29:32.260Z,1014.50
2018-08-06T03:30:32.136Z,1014.50
2018-08-06T03:31:32.057Z,1014.51
2018-08-06T03:32:31.978Z,1014.48
2018-08-06T03:33:31.922Z,1014.50
2018-08-06T03:34:31.829Z,1014.46
2018-08-06T03:35:31.769Z,1014.45
2018-08-06T03:36:31.668Z,1014.43
2018-08-06T03:37:31.601Z,1014.42
2018-08-06T03:38:31.536Z,1014.40
2018-08-06T03:39:31.435Z,1014.39
2018-08-06T03:40:31.353Z,1014.36
2018-08-06T03:43:13.310Z,1014.34
2018-08-06T03:44:14.233Z,1014.35
2018-08-06T03:45:13.148Z,1014.32
2018-08-06T03:46:13.101Z,1014.32
2018-08-06T03:47:12.996Z,1014.35
2018-08-06T03:48:12.941Z,1014.32
2018-08-06T03:49:12.861Z,1014.32
2018-08-06T03:50:12.764Z,1014.27
2018-08-06T03:51:12.683Z,1014.27
2018-08-06T03:52:12.597Z,1014.27
2018-08-06T03:53:12.522Z,1014.28
2018-08-06T03:54:13.446Z,1014.25
2018-08-06T03:55:12.356Z,1014.29
2018-08-06T03:56:12.308Z,1014.24
2018-08-06T03:57:12.199Z,1014.27
2018-08-06T03:58:12.140Z,1014.28
2018-08-06T03:59:12.145Z,1014.29
2018-08-06T04:01:54.313Z,1014.27
2018-08-06T04:02:54.230Z,1014.29
2018-08-06T04:03:54.142Z,1014.24
2018-08-06T04:04:55.125Z,1014.29
2018-08-06T04:05:54.019Z,1014.32
2018-08-06T04:06:53.914Z,1014.31
2018-08-06T04:07:53.839Z,1014.30
2018-08-06T04:08:53.761Z,1014.32
2018-08-06T04:09:53.704Z,1014.32
2018-08-06T04:10:53.654Z,1014.32
2018-08-06T04:11:53.518Z,1014.27
2018-08-06T04:14:35.840Z,1014.29
2018-08-06T04:15:35.745Z,1014.29
2018-08-06T04:16:35.663Z,1014.28
2018-08-06T04:19:17.854Z,1014.27
2018-08-06T04:20:17.768Z,1014.27
2018-08-06T04:21:17.654Z,1014.26
2018-08-06T04:22:17.598Z,1014.26
2018-08-06T04:23:17.535Z,1014.25
2018-08-06T04:24:17.442Z,1014.27
2018-08-06T04:25:17.385Z,1014.25
2018-08-06T04:26:17.268Z,1014.24
2018-08-06T04:27:17.187Z,1014.26
2018-08-06T04:28:17.113Z,1014.28
2018-08-06T04:29:17.021Z,1014.25
2018-08-06T04:30:17.972Z,1014.25
2018-08-06T04:31:16.860Z,1014.27
2018-08-06T04:32:16.802Z,1014.24
2018-08-06T04:33:16.721Z,1014.25
2018-08-06T04:34:16.643Z,1014.23
2018-08-06T04:35:16.581Z,1014.26
2018-08-06T04:37:58.831Z,1014.29
2018-08-06T04:38:58.756Z,1014.30
2018-08-06T04:39:58.703Z,1014.29
2018-08-06T04:40:58.627Z,1014.28
2018-08-06T04:41:58.495Z,1014.25
2018-08-06T04:42:58.429Z,1014.28
2018-08-06T04:43:58.334Z,1014.25
2018-08-06T04:44:58.301Z,1014.27
2018-08-06T04:45:58.229Z,1014.22
2018-08-06T04:48:40.316Z,1014.20
2018-08-06T04:49:40.253Z,1014.18
2018-08-06T04:50:40.185Z,1014.18
2018-08-06T04:51:40.123Z,1014.20
2018-08-06T04:52:40.010Z,1014.15
2018-08-06T04:55:21.824Z,1014.12
2018-08-06T04:56:21.777Z,1014.17
2018-08-06T04:57:21.662Z,1014.19
2018-08-06T04:58:21.592Z,1014.19
2018-08-06T04:59:21.508Z,1014.18
2018-08-06T05:00:21.455Z,1014.18
2018-08-06T05:01:21.369Z,1014.22
2018-08-06T05:02:21.278Z,1014.20
2018-08-06T05:03:21.192Z,1014.17
2018-08-06T05:04:21.128Z,1014.16
2018-08-06T05:05:21.039Z,1014.17
2018-08-06T05:06:22.002Z,1014.16
2018-08-06T05:07:20.887Z,1014.16
2018-08-06T05:08:20.817Z,1014.16
2018-08-06T05:09:20.743Z,1014.16
2018-08-06T05:10:20.651Z,1014.17
2018-08-06T05:11:20.585Z,1014.18
2018-08-06T05:12:20.487Z,1014.17
2018-08-06T05:13:20.400Z,1014.16
2018-08-06T05:14:20.341Z,1014.18
2018-08-06T05:15:20.246Z,1014.20
2018-08-06T05:16:20.200Z,1014.20
2018-08-06T05:17:20.183Z,1014.18
2018-08-06T05:18:20.034Z,1014.17
2018-08-06T05:19:19.953Z,1014.20
2018-08-06T05:20:19.867Z,1014.19
2018-08-06T05:21:19.771Z,1014.21
2018-08-06T05:22:20.738Z,1014.22
2018-08-06T05:23:19.613Z,1014.22
2018-08-06T05:24:19.559Z,1014.25
2018-08-06T05:25:19.469Z,1014.22
2018-08-06T05:26:19.386Z,1014.12
2018-08-06T05:27:19.306Z,1014.17
2018-08-06T05:28:20.298Z,1014.12
2018-08-06T05:29:19.168Z,1014.21
2018-08-06T05:30:19.101Z,1014.14
2018-08-06T05:31:19.034Z,1014.18
2018-08-06T05:32:18.943Z,1014.18
2018-08-06T05:33:18.866Z,1014.17
2018-08-06T05:34:18.790Z,1014.17
2018-08-06T05:35:18.685Z,1014.19
2018-08-06T05:36:18.618Z,1014.21
2018-08-06T05:37:18.519Z,1014.21
2018-08-06T05:38:18.465Z,1014.20
2018-08-06T05:39:18.394Z,1014.26
2018-08-06T05:40:18.297Z,1014.22
2018-08-06T05:41:18.205Z,1014.24
2018-08-06T05:42:18.126Z,1014.23
2018-08-06T05:43:18.077Z,1014.19
2018-08-06T05:44:17.976Z,1014.22
2018-08-06T05:45:17.894Z,1014.18
2018-08-06T05:46:17.810Z,1014.21
2018-08-06T05:47:17.724Z,1014.20
2018-08-06T05:48:17.729Z,1014.15
2018-08-06T05:49:17.573Z,1014.21
2018-08-06T05:50:17.516Z,1014.14
2018-08-06T05:51:17.415Z,1014.18
2018-08-06T05:52:17.345Z,1014.22
2018-08-06T05:53:17.293Z,1014.18
2018-08-06T05:54:17.199Z,1014.16
2018-08-06T05:55:17.094Z,1014.16
2018-08-06T05:56:17.036Z,1014.17
2018-08-06T05:57:16.940Z,1014.18
2018-08-06T05:58:16.919Z,1014.19
2018-08-06T05:59:16.793Z,1014.21
2018-08-06T06:01:58.840Z,1014.19
2018-08-06T06:02:58.787Z,1014.16
2018-08-06T06:03:58.699Z,1014.18
2018-08-06T06:04:58.611Z,1014.17
2018-08-06T06:05:58.552Z,1014.19
2018-08-06T06:08:40.371Z,1014.19
2018-08-06T06:09:40.277Z,1014.17
2018-08-06T06:10:40.200Z,1014.13
2018-08-06T06:11:40.122Z,1014.36
2018-08-06T06:12:40.058Z,1014.62
2018-08-06T06:13:39.992Z,1014.71
2018-08-06T06:14:39.892Z,1014.53
2018-08-06T06:15:39.815Z,1014.74
2018-08-06T06:16:39.730Z,1014.60
2018-08-06T06:19:21.879Z,1014.84
2018-08-06T06:20:21.782Z,1014.83
2018-08-06T06:21:21.689Z,1014.83
2018-08-06T06:22:21.619Z,1014.87
2018-08-06T06:23:21.552Z,1014.94
2018-08-06T06:24:21.513Z,1014.80
2018-08-06T06:25:21.405Z,1014.95
2018-08-06T06:26:21.315Z,1014.98
2018-08-06T06:27:21.231Z,1015.01
2018-08-06T06:28:21.163Z,1014.81
2018-08-06T06:29:21.115Z,1014.76
2018-08-06T06:30:21.025Z,1015.03
2018-08-06T06:31:21.048Z,1015.05
2018-08-06T06:32:20.874Z,1015.02
2018-08-06T06:33:20.784Z,1015.05
2018-08-06T06:34:20.813Z,1015.06
2018-08-06T06:35:20.658Z,1015.07
2018-08-06T06:36:20.577Z,1015.11
2018-08-06T06:37:20.492Z,1015.15
2018-08-06T06:38:20.443Z,1015.16
2018-08-06T06:39:20.365Z,1015.18
2018-08-06T06:40:20.282Z,1015.21
2018-08-06T06:41:20.196Z,1015.21
2018-08-06T06:44:02.357Z,1015.29
2018-08-06T06:45:02.341Z,1015.17
2018-08-06T06:46:02.230Z,1015.08
2018-08-06T06:48:44.394Z,1014.91
2018-08-06T06:49:44.299Z,1014.87
2018-08-06T06:50:44.239Z,1014.87
2018-08-06T06:51:44.153Z,1014.91
2018-08-06T06:52:44.078Z,1014.89
2018-08-06T06:53:43.998Z,1014.87
2018-08-06T06:54:43.916Z,1014.86
2018-08-06T06:55:43.873Z,1014.87
2018-08-06T06:56:43.773Z,1014.90
2018-08-06T06:57:43.706Z,1014.87
2018-08-06T06:58:43.661Z,1014.92
2018-08-06T06:59:43.571Z,1014.94
2018-08-06T07:00:43.510Z,1015.00
2018-08-06T07:01:43.457Z,1014.91
2018-08-06T07:02:43.346Z,1014.92
2018-08-06T07:03:43.284Z,1014.97
2018-08-06T07:04:43.232Z,1014.92
2018-08-06T07:05:43.167Z,1014.92
2018-08-06T07:06:43.078Z,1014.91
2018-08-06T07:07:44.014Z,1014.93
2018-08-06T07:08:42.925Z,1014.93
2018-08-06T07:09:42.901Z,1014.91
2018-08-06T07:10:42.772Z,1014.95
2018-08-06T07:11:42.757Z,1014.89
2018-08-06T07:12:42.639Z,1014.90
2018-08-06T07:13:42.597Z,1014.92
2018-08-06T07:14:42.506Z,1014.88
2018-08-06T07:15:42.476Z,1014.89
2018-08-06T07:16:42.357Z,1014.75
2018-08-06T07:17:42.311Z,1014.80
2018-08-06T07:18:42.204Z,1014.73
2018-08-06T07:19:42.146Z,1014.71
2018-08-06T07:20:42.065Z,1014.69
2018-08-06T07:21:43.011Z,1014.75
2018-08-06T07:22:41.942Z,1014.94
2018-08-06T07:23:41.857Z,1015.00
2018-08-06T07:24:41.783Z,1014.93
2018-08-06T07:25:41.741Z,1014.92
2018-08-06T07:26:41.669Z,1014.81
2018-08-06T07:27:41.609Z,1014.78
2018-08-06T07:28:41.506Z,1014.77
2018-08-06T07:29:41.438Z,1014.73
2018-08-06T07:30:41.364Z,1014.64
2018-08-06T07:31:41.329Z,1014.56
2018-08-06T07:32:41.231Z,1014.56
2018-08-06T07:33:41.257Z,1014.49
2018-08-06T07:34:41.092Z,1014.51
2018-08-06T07:37:23.420Z,1014.38
2018-08-06T07:38:23.314Z,1014.37
2018-08-06T07:39:23.242Z,1014.31
2018-08-06T07:42:05.398Z,1014.24
2018-08-06T07:43:05.339Z,1014.27
2018-08-06T07:44:05.309Z,1014.25
2018-08-06T07:45:05.169Z,1014.28
2018-08-06T07:46:05.097Z,1014.22
2018-08-06T07:47:05.066Z,1014.22
2018-08-06T07:48:04.957Z,1014.13
2018-08-06T07:49:04.906Z,1014.14
2018-08-06T07:50:04.839Z,1014.04
2018-08-06T07:52:46.918Z,1014.01
2018-08-06T07:55:28.926Z,1014.00
2018-08-06T07:56:28.864Z,1014.05
2018-08-06T07:57:28.752Z,1013.95
2018-08-06T07:58:28.725Z,1013.96
2018-08-06T07:59:28.627Z,1014.02
2018-08-06T08:00:28.580Z,1013.94
2018-08-06T08:01:28.473Z,1013.98
2018-08-06T08:04:10.400Z,1013.91
2018-08-06T08:05:10.333Z,1013.89
2018-08-06T08:06:10.327Z,1013.89
2018-08-06T08:07:10.197Z,1013.85
2018-08-06T08:08:10.110Z,1013.87
2018-08-06T08:09:11.093Z,1013.90
2018-08-06T08:10:09.978Z,1013.90
2018-08-06T08:11:09.914Z,1013.89
2018-08-06T08:12:09.849Z,1013.88
2018-08-06T08:13:09.772Z,1013.87
2018-08-06T08:14:09.730Z,1013.86
2018-08-06T08:15:09.648Z,1013.89
2018-08-06T08:16:09.589Z,1013.91
2018-08-06T08:17:09.526Z,1013.88
2018-08-06T08:18:09.441Z,1013.90
2018-08-06T08:20:51.564Z,1013.86
2018-08-06T08:21:51.365Z,1013.88
2018-08-06T08:22:51.270Z,1013.85
2018-08-06T08:23:51.226Z,1013.88
2018-08-06T08:24:51.126Z,1013.81
2018-08-06T08:25:51.106Z,1013.83
2018-08-06T08:26:50.995Z,1013.88
2018-08-06T08:27:50.931Z,1013.90
2018-08-06T08:28:50.882Z,1013.87
2018-08-06T08:29:50.810Z,1013.89
2018-08-06T08:30:50.785Z,1013.79
2018-08-06T08:31:50.670Z,1013.88
2018-08-06T08:32:50.584Z,1013.91
2018-08-06T08:35:32.898Z,1013.86
2018-08-06T08:36:32.947Z,1013.93
2018-08-06T08:37:32.766Z,1013.89
2018-08-06T08:38:32.728Z,1014.00
2018-08-06T08:39:32.651Z,1013.88
2018-08-06T08:40:32.580Z,1013.90
2018-08-06T08:41:32.530Z,1013.94
2018-08-06T08:42:32.459Z,1013.61
2018-08-06T08:43:32.384Z,1013.49
2018-08-06T08:46:14.398Z,1013.83
2018-08-06T08:47:15.410Z,1013.88
2018-08-06T08:48:14.272Z,1013.82
2018-08-06T08:50:56.460Z,1013.83
2018-08-06T08:51:56.355Z,1013.80
2018-08-06T08:52:56.299Z,1013.80
2018-08-06T08:53:56.241Z,1013.79
2018-08-06T08:54:56.151Z,1013.82
2018-08-06T08:55:56.093Z,1013.81
2018-08-06T08:56:56.048Z,1013.78
2018-08-06T08:57:55.997Z,1013.78
2018-08-06T08:58:55.984Z,1013.80
2018-08-06T08:59:55.872Z,1013.78
2018-08-06T09:00:55.761Z,1013.69
2018-08-06T09:01:55.719Z,1013.69
2018-08-06T09:02:55.667Z,1013.53
2018-08-06T09:03:55.568Z,1013.28
2018-08-06T09:04:55.499Z,1013.41
2018-08-06T09:05:55.450Z,1013.53
2018-08-06T09:06:55.355Z,1013.48
2018-08-06T09:07:55.312Z,1013.54
2018-08-06T09:08:55.296Z,1013.78
2018-08-06T09:09:55.224Z,1013.93
2018-08-06T09:10:55.128Z,1013.86
2018-08-06T09:13:37.424Z,1013.84
2018-08-06T09:14:37.383Z,1013.89
2018-08-06T09:15:37.330Z,1013.81
2018-08-06T09:18:19.420Z,1013.88
2018-08-06T09:19:19.473Z,1013.81
2018-08-06T09:20:19.400Z,1013.84
2018-08-06T09:21:19.237Z,1013.75
2018-08-06T09:22:19.149Z,1013.85
2018-08-06T09:25:01.429Z,1013.78
2018-08-06T09:26:02.396Z,1013.71
2018-08-06T09:27:01.509Z,1013.71
2018-08-06T09:28:01.231Z,1013.78
2018-08-06T09:29:01.165Z,1013.76
2018-08-06T09:30:01.177Z,1013.76
2018-08-06T09:31:01.034Z,1013.76
2018-08-06T09:32:00.979Z,1013.54
2018-08-06T09:33:00.901Z,1013.62
2018-08-06T09:34:00.889Z,1013.59
2018-08-06T09:35:00.814Z,1013.71
2018-08-06T09:36:00.747Z,1013.64
2018-08-06T09:37:00.662Z,1013.70
2018-08-06T09:38:00.590Z,1013.56
2018-08-06T09:39:00.547Z,1013.69
2018-08-06T09:40:00.464Z,1013.66
2018-08-06T09:41:00.422Z,1013.67
2018-08-06T09:42:00.347Z,1013.64
2018-08-06T09:43:00.264Z,1013.63
2018-08-06T09:44:00.231Z,1013.60
2018-08-06T09:45:00.170Z,1013.60
2018-08-06T09:46:00.122Z,1013.54
2018-08-06T09:47:00.024Z,1013.55
2018-08-06T09:47:59.961Z,1013.52
2018-08-06T09:48:59.879Z,1013.11
2018-08-06T09:49:59.828Z,1013.27
2018-08-06T09:50:59.777Z,1013.53
2018-08-06T09:53:41.926Z,1013.06
2018-08-06T09:54:41.887Z,1013.04
2018-08-06T09:55:41.826Z,1013.18
2018-08-06T09:56:41.747Z,1013.07
2018-08-06T09:57:41.692Z,1013.09
2018-08-06T10:00:23.934Z,1013.27
2018-08-06T10:01:23.911Z,1013.02
2018-08-06T10:02:23.824Z,1013.30
2018-08-06T10:03:23.769Z,1013.36
2018-08-06T10:04:23.671Z,1013.01
2018-08-06T10:07:05.980Z,1013.22
2018-08-06T10:08:05.880Z,1013.07
2018-08-06T10:09:05.826Z,1013.10
2018-08-06T10:10:05.788Z,1013.13
2018-08-06T10:11:05.716Z,1013.00
2018-08-06T10:13:47.960Z,1012.77
2018-08-06T10:16:29.974Z,1013.01
2018-08-06T10:17:29.879Z,1012.92
2018-08-06T10:18:29.823Z,1013.00
2018-08-06T10:19:29.794Z,1012.96
2018-08-06T10:20:29.684Z,1013.01
2018-08-06T10:21:29.627Z,1012.92
2018-08-06T10:22:29.625Z,1012.86
2018-08-06T10:25:11.948Z,1012.86
2018-08-06T10:27:53.952Z,1012.90
2018-08-06T10:28:53.883Z,1012.84
2018-08-06T10:29:53.828Z,1012.83
2018-08-06T10:30:53.788Z,1012.81
2018-08-06T10:31:53.696Z,1012.79
2018-08-06T10:32:53.687Z,1012.84
2018-08-06T10:33:53.570Z,1012.79
2018-08-06T10:34:53.522Z,1012.79
2018-08-06T10:35:53.457Z,1012.83
2018-08-06T10:36:53.405Z,1012.86
2018-08-06T10:37:53.365Z,1012.77
2018-08-06T10:38:53.291Z,1012.72
2018-08-06T10:39:53.223Z,1012.66
2018-08-06T10:42:35.441Z,1012.76
2018-08-06T10:43:35.422Z,1012.66
2018-08-06T10:44:35.337Z,1012.61
2018-08-06T10:45:35.274Z,1012.66
2018-08-06T10:46:35.205Z,1012.63
2018-08-06T10:47:35.164Z,1012.58
2018-08-06T10:48:35.135Z,1012.55
2018-08-06T10:49:35.024Z,1012.53
2018-08-06T10:50:34.959Z,1012.52
2018-08-06T10:51:34.905Z,1012.54
2018-08-06T10:52:34.836Z,1012.57
2018-08-06T10:53:34.814Z,1012.56
2018-08-06T10:54:34.705Z,1012.56
2018-08-06T10:55:34.661Z,1012.53
2018-08-06T10:56:34.589Z,1012.54
2018-08-06T10:59:16.508Z,1012.45
2018-08-06T11:01:58.471Z,1012.42
2018-08-06T11:02:58.420Z,1012.44
2018-08-06T11:03:58.378Z,1012.41
2018-08-06T11:04:59.311Z,1012.37
2018-08-06T11:05:58.242Z,1012.44
2018-08-06T11:08:40.477Z,1012.37
2018-08-06T11:09:40.386Z,1012.38
2018-08-06T11:10:40.358Z,1012.34
2018-08-06T11:11:40.275Z,1012.30
2018-08-06T11:12:40.230Z,1012.26
2018-08-06T11:13:40.149Z,1012.18
2018-08-06T11:14:40.099Z,1012.17
2018-08-06T11:15:40.085Z,1012.28
2018-08-06T11:16:39.988Z,1012.25
2018-08-06T11:17:39.936Z,1012.23
2018-08-06T11:18:39.865Z,1012.17
2018-08-06T11:19:39.822Z,1012.15
2018-08-06T11:20:39.783Z,1012.16
2018-08-06T11:21:39.680Z,1012.12
2018-08-06T11:22:39.635Z,1012.14
2018-08-06T11:23:39.567Z,1012.17
2018-08-06T11:24:39.513Z,1012.10
2018-08-06T11:25:39.463Z,1012.13
2018-08-06T11:26:39.382Z,1012.12
2018-08-06T11:27:39.332Z,1012.09
2018-08-06T11:28:39.262Z,1012.06
2018-08-06T11:29:39.233Z,1012.02
2018-08-06T11:30:39.168Z,1012.04
2018-08-06T11:31:39.105Z,1012.01
2018-08-06T11:32:39.066Z,1012.04
2018-08-06T11:35:21.046Z,1011.83
2018-08-06T11:36:20.903Z,1011.93
2018-08-06T11:37:20.837Z,1011.91
2018-08-06T11:38:20.786Z,1011.87
2018-08-06T11:39:20.733Z,1011.85
2018-08-06T11:40:21.699Z,1011.85
2018-08-06T11:41:20.606Z,1011.89
2018-08-06T11:42:20.559Z,1011.86
2018-08-06T11:43:20.494Z,1011.90
2018-08-06T11:44:20.429Z,1011.90
2018-08-06T11:45:20.366Z,1011.86
2018-08-06T11:46:20.323Z,1011.81
2018-08-06T11:47:20.269Z,1011.85
2018-08-06T11:48:20.193Z,1011.77
2018-08-06T11:49:20.163Z,1011.81
2018-08-06T11:52:02.484Z,1011.77
2018-08-06T11:53:02.422Z,1011.42
2018-08-06T11:54:02.406Z,1011.23
2018-08-06T11:55:02.289Z,1011.14
2018-08-06T11:56:02.280Z,1011.20
2018-08-06T11:57:02.190Z,1011.22
2018-08-06T11:58:02.109Z,1011.22
2018-08-06T11:59:02.061Z,1011.21
2018-08-06T12:00:01.995Z,1011.20
2018-08-06T12:01:01.993Z,1011.19
2018-08-06T12:02:01.973Z,1011.22
2018-08-06T12:03:01.834Z,1011.23
2018-08-06T12:04:01.762Z,1011.19
2018-08-06T12:05:01.706Z,1011.17
2018-08-06T12:06:01.642Z,1011.15
2018-08-06T12:07:01.679Z,1011.17
2018-08-06T12:08:01.570Z,1011.15
2018-08-06T12:10:43.491Z,1011.14
2018-08-06T12:11:44.531Z,1011.11
2018-08-06T12:12:43.358Z,1011.08
2018-08-06T12:13:43.340Z,1011.07
2018-08-06T12:14:43.219Z,1011.08
2018-08-06T12:15:43.177Z,1011.04
2018-08-06T12:16:43.227Z,1011.04
2018-08-06T12:17:43.065Z,1011.03
2018-08-06T12:18:42.970Z,1011.05
2018-08-06T12:19:42.903Z,1011.03
2018-08-06T12:20:42.845Z,1010.99
2018-08-06T12:21:42.785Z,1011.00
2018-08-06T12:22:42.717Z,1011.06
2018-08-06T12:23:42.686Z,1011.02
2018-08-06T12:24:42.562Z,1010.98
2018-08-06T12:27:24.617Z,1010.98
2018-08-06T12:28:24.498Z,1011.02
2018-08-06T12:29:24.363Z,1011.01
2018-08-06T12:30:24.273Z,1010.96
2018-08-06T12:31:24.202Z,1011.02
2018-08-06T12:32:24.176Z,1011.02
2018-08-06T12:33:24.098Z,1011.02
2018-08-06T12:34:24.029Z,1010.98
2018-08-06T12:35:23.929Z,1011.01
2018-08-06T12:36:23.869Z,1010.97
2018-08-06T12:37:24.246Z,1011.00
2018-08-06T12:38:24.762Z,1011.00
2018-08-06T12:39:23.685Z,1010.96
2018-08-06T12:40:23.604Z,1010.98
2018-08-06T12:41:23.579Z,1010.97
2018-08-06T12:42:23.486Z,1010.94
2018-08-06T12:43:23.386Z,1010.95
2018-08-06T12:44:24.362Z,1010.91
2018-08-06T12:45:23.248Z,1010.92
2018-08-06T12:46:23.189Z,1010.87
2018-08-06T12:47:23.133Z,1010.87
2018-08-06T12:50:05.008Z,1010.80
2018-08-06T12:51:04.932Z,1010.80
2018-08-06T12:52:04.849Z,1010.86
2018-08-06T12:53:04.779Z,1010.76
2018-08-06T12:54:04.713Z,1010.74
2018-08-06T12:55:04.688Z,1010.79
2018-08-06T12:56:04.579Z,1010.67
2018-08-06T12:57:04.520Z,1010.74
2018-08-06T12:58:04.424Z,1010.76
2018-08-06T12:59:04.370Z,1010.76
2018-08-06T13:00:04.323Z,1010.67
2018-08-06T13:01:04.223Z,1010.73
2018-08-06T13:02:04.203Z,1010.71
2018-08-06T13:03:04.089Z,1010.68
2018-08-06T13:04:04.030Z,1010.61
2018-08-06T13:05:04.037Z,1010.63
2018-08-06T13:06:03.959Z,1010.59
2018-08-06T13:07:03.837Z,1010.60
2018-08-06T13:08:03.767Z,1010.60
2018-08-06T13:09:03.771Z,1010.60
2018-08-06T13:10:03.628Z,1010.54
2018-08-06T13:11:03.558Z,1010.60
2018-08-06T13:12:03.488Z,1010.59
2018-08-06T13:13:03.389Z,1010.57
2018-08-06T13:14:03.318Z,1010.56
2018-08-06T13:15:03.253Z,1010.55
2018-08-06T13:16:03.194Z,1010.57
2018-08-06T13:17:03.135Z,1010.51
2018-08-06T13:18:03.120Z,1010.51
2018-08-06T13:20:45.012Z,1010.47
2018-08-06T13:21:44.941Z,1010.46
2018-08-06T13:22:44.851Z,1010.40
2018-08-06T13:25:27.070Z,1010.34
2018-08-06T13:26:26.947Z,1010.35
2018-08-06T13:27:26.879Z,1010.35
2018-08-06T13:28:26.805Z,1010.35
2018-08-06T13:29:26.731Z,1010.34
2018-08-06T13:30:26.658Z,1010.31
2018-08-06T13:31:26.613Z,1010.30
2018-08-06T13:34:08.512Z,1010.25
2018-08-06T13:35:08.436Z,1010.23
2018-08-06T13:36:08.396Z,1010.25